Time;durP1;ratioP1;P1;durP2;ratioP2;P2;SDS_P1;SDS_P2;PMS_P1;PMS_P2;Temp;Humidity;BMP_temperature;BMP_pressure;BME280_temperature;BME280_humidity;BME280_pressure;Samples;Min_cycle;Max_cycle;Signal;HPM_P1;HPM_P2
2022/06/05 00:02:06;;;;;;;6.43;5.90;;;;;;;20.82;100.00;100170.03;4988934;28;20279;-76
2022/06/05 00:04:49;;;;;;;6.63;6.03;;;;;;;20.77;100.00;100184.38;5001032;28;20201;-76
2022/06/05 00:07:31;;;;;;;6.70;6.17;;;;;;;20.74;100.00;100193.22;4987467;28;20199;-77
2022/06/05 00:10:03;;;;;;;6.97;6.10;;;;;;;20.75;100.00;100189.69;4982428;28;20216;-76
2022/06/05 00:12:50;;;;;;;6.47;5.97;;;;;;;20.70;100.00;100195.16;4985317;28;20193;-75
2022/06/05 00:15:15;;;;;;;6.77;6.27;;;;;;;20.68;100.00;100209.34;5015205;28;20267;-75
2022/06/05 00:17:41;;;;;;;7.20;6.50;;;;;;;20.69;100.00;100200.53;4984534;28;20196;-75
2022/06/05 00:20:07;;;;;;;7.10;6.43;;;;;;;20.70;100.00;100204.84;4985363;28;20272;-75
2022/06/05 00:22:33;;;;;;;6.97;6.43;;;;;;;20.70;100.00;100200.44;4984938;28;20189;-76
2022/06/05 00:24:59;;;;;;;6.83;6.23;;;;;;;20.74;100.00;100206.38;4985259;28;21405;-75
2022/06/05 00:28:04;;;;;;;6.70;6.20;;;;;;;20.71;100.00;100217.06;4984334;28;20199;-75
2022/06/05 00:30:48;;;;;;;7.07;6.57;;;;;;;20.66;100.00;100232.22;4982188;28;20213;-75
2022/06/05 00:33:38;;;;;;;6.67;6.17;;;;;;;20.60;100.00;100233.41;4985376;28;20188;-76
2022/06/05 00:36:41;;;;;;;7.23;6.63;;;;;;;20.52;100.00;100236.44;4981642;28;20189;-75
2022/06/05 00:40:11;;;;;;;6.67;6.13;;;;;;;20.35;100.00;100234.66;4980702;28;20197;-76
2022/06/05 00:42:36;;;;;;;7.03;6.43;;;;;;;20.20;100.00;100212.63;4932389;29;20209;-75
2022/06/05 00:45:09;;;;;;;7.17;6.63;;;;;;;20.16;100.00;100226.00;4972961;28;20561;-76
2022/06/05 00:47:35;;;;;;;7.57;6.87;;;;;;;20.10;100.00;100232.44;4985691;28;20183;-75
2022/06/05 00:50:10;;;;;;;7.63;6.93;;;;;;;20.07;100.00;100230.78;4984262;28;20280;-76
2022/06/05 00:52:39;;;;;;;7.50;7.00;;;;;;;20.04;100.00;100236.19;4983190;28;20201;-75
2022/06/05 00:55:05;;;;;;;7.43;6.90;;;;;;;20.01;100.00;100238.13;4981656;28;20218;-76
2022/06/05 00:57:33;;;;;;;7.07;6.57;;;;;;;20.00;100.00;100239.03;4984773;28;20246;-76
2022/06/05 01:00:02;;;;;;;7.23;6.63;;;;;;;19.99;100.00;100245.22;4988444;28;20201;-75
2022/06/05 01:02:29;;;;;;;7.20;6.60;;;;;;;19.99;100.00;100242.59;4984391;28;20216;-75
2022/06/05 01:04:54;;;;;;;7.33;6.73;;;;;;;19.98;100.00;100244.38;5014811;28;20196;-75
2022/06/05 01:07:21;;;;;;;9.00;7.23;;;;;;;19.98;100.00;100246.13;4980804;28;20199;-75
2022/06/05 01:09:49;;;;;;;16.43;7.53;;;;;;;19.90;100.00;100239.50;4986247;28;20216;-75
2022/06/05 01:12:17;;;;;;;10.77;8.77;;;;;;;19.72;100.00;100208.84;4983213;28;20615;-77
2022/06/05 01:15:13;;;;;;;10.37;9.50;;;;;;;19.37;100.00;100214.00;4982287;28;20205;-76
2022/06/05 01:17:47;;;;;;;12.30;11.33;;;;;;;19.02;100.00;100222.56;4982809;28;20207;-76
2022/06/05 01:20:23;;;;;;;12.73;11.70;;;;;;;18.83;100.00;100241.72;4981186;28;20214;-77
2022/06/05 01:23:08;;;;;;;16.20;15.00;;;;;;;18.77;100.00;100269.97;4985742;28;20257;-76
2022/06/05 01:25:52;;;;;;;17.90;16.57;;;;;;;18.67;100.00;100278.25;4984273;28;20216;-76
2022/06/05 01:28:22;;;;;;;20.03;18.50;;;;;;;18.61;100.00;100285.53;4982721;28;20663;-76
2022/06/05 01:30:55;;;;;;;18.50;17.13;;;;;;;18.51;100.00;100249.25;4983289;28;20766;-76
2022/06/05 01:33:24;;;;;;;18.80;17.20;;;;;;;18.43;100.00;100176.19;4983158;28;20294;-77
2022/06/05 01:36:01;;;;;;;17.57;16.27;;;;;;;18.13;100.00;100065.75;4982306;28;20287;-79
2022/06/05 01:38:36;;;;;;;25.33;23.13;;;;;;;17.94;100.00;100035.09;4987632;28;20247;-80
2022/06/05 01:41:09;;;;;;;30.87;28.20;;;;;;;17.79;100.00;100043.59;4987643;28;20228;-82
2022/06/05 01:43:41;;;;;;;36.70;33.20;;;;;;;17.69;100.00;100053.63;4985437;28;20297;-82
2022/06/05 01:46:14;;;;;;;46.47;41.73;;;;;;;17.58;100.00;100030.53;4985141;28;20194;-79
2022/06/05 01:48:45;;;;;;;47.67;42.77;;;;;;;17.52;100.00;100015.94;4987034;28;20247;-81
2022/06/05 01:51:19;;;;;;;46.17;41.20;;;;;;;17.46;100.00;100010.97;4984818;28;20769;-78
2022/06/05 01:53:47;;;;;;;50.90;45.27;;;;;;;17.36;100.00;100004.44;4984185;28;20839;-81
2022/06/05 01:56:19;;;;;;;61.33;51.53;;;;;;;17.34;100.00;99994.00;4986666;28;20185;-81
2022/06/05 01:58:49;;;;;;;60.77;51.17;;;;;;;17.27;100.00;99997.81;4989860;28;20188;-81
2022/06/05 02:01:20;;;;;;;66.57;55.13;;;;;;;17.28;100.00;99968.13;4986788;28;20578;-82
2022/06/05 02:03:54;;;;;;;65.83;55.60;;;;;;;17.20;100.00;99954.50;4984425;28;20201;-82
2022/06/05 02:06:30;;;;;;;73.10;57.10;;;;;;;17.17;100.00;99934.59;4985463;28;20201;-80
2022/06/05 02:09:05;;;;;;;66.40;55.50;;;;;;;17.14;100.00;99928.63;4986158;28;20192;-81
2022/06/05 02:11:32;;;;;;;66.63;55.67;;;;;;;17.08;100.00;99918.44;4986185;28;20286;-82
2022/06/05 02:14:07;;;;;;;64.07;56.13;;;;;;;17.01;100.00;99913.47;4985791;28;20189;-81
2022/06/05 02:16:36;;;;;;;66.90;56.83;;;;;;;17.04;100.00;99923.78;4983698;28;20562;-80
2022/06/05 02:19:05;;;;;;;81.33;62.23;;;;;;;17.01;100.00;99925.69;4984065;28;20189;-78
2022/06/05 02:21:32;;;;;;;81.83;61.07;;;;;;;16.94;100.00;99911.16;4982449;28;20501;-78
2022/06/05 02:23:58;;;;;;;92.13;65.07;;;;;;;16.99;100.00;99890.91;4987671;28;20185;-79
2022/06/05 02:26:25;;;;;;;84.00;63.73;;;;;;;16.96;100.00;99877.97;4986958;28;20192;-79
2022/06/05 02:28:51;;;;;;;82.23;63.83;;;;;;;16.96;100.00;99857.03;4987502;28;20576;-78
2022/06/05 02:31:16;;;;;;;91.53;67.37;;;;;;;16.97;100.00;99843.06;4987815;28;20227;-78
2022/06/05 02:33:50;;;;;;;104.87;69.97;;;;;;;17.01;100.00;99849.88;4988211;28;20185;-79
2022/06/05 02:36:21;;;;;;;99.70;68.83;;;;;;;17.00;100.00;99869.94;4985238;28;20718;-77
2022/06/05 02:38:53;;;;;;;102.73;70.40;;;;;;;17.12;100.00;99865.09;4990460;28;20720;-80
2022/06/05 02:41:29;;;;;;;104.77;70.03;;;;;;;17.15;100.00;99880.66;4989018;28;21040;-79
2022/06/05 02:44:29;;;;;;;107.80;71.67;;;;;;;17.12;100.00;99883.41;4987692;28;20196;-78
2022/06/05 02:47:03;;;;;;;111.73;72.30;;;;;;;17.19;100.00;99890.06;5001488;28;20201;-78
2022/06/05 02:49:43;;;;;;;100.27;70.10;;;;;;;17.20;100.00;99892.63;4988026;28;20795;-79
2022/06/05 02:52:09;;;;;;;94.53;66.17;;;;;;;17.20;100.00;99881.28;4988360;28;20281;-78
2022/06/05 02:54:41;;;;;;;101.60;69.93;;;;;;;17.24;100.00;99903.78;4987013;28;20197;-79
2022/06/05 02:57:06;;;;;;;105.77;70.17;;;;;;;17.30;100.00;99910.53;4984538;28;20236;-78
2022/06/05 02:59:32;;;;;;;99.57;67.27;;;;;;;17.32;100.00;99920.00;4987508;28;20240;-79
2022/06/05 03:04:42;;;;;;;93.67;65.47;;;;;;;17.46;100.00;99955.19;4986022;28;20679;-77
2022/06/05 03:07:08;;;;;;;87.80;61.67;;;;;;;17.52;100.00;100025.56;4989958;28;20189;-79
2022/06/05 03:09:34;;;;;;;86.47;62.10;;;;;;;17.61;100.00;100124.63;4986611;28;20680;-79
2022/06/05 03:11:59;;;;;;;92.20;63.90;;;;;;;17.65;100.00;100170.66;4985015;28;20190;-79
2022/06/05 03:14:25;;;;;;;95.67;67.93;;;;;;;17.73;100.00;100187.81;4988381;28;20197;-78
2022/06/05 03:16:50;;;;;;;105.00;69.23;;;;;;;17.70;100.00;100175.69;4986938;28;20231;-78
2022/06/05 03:19:16;;;;;;;95.83;66.17;;;;;;;17.74;100.00;100164.19;4985536;28;20272;-77
2022/06/05 03:21:42;;;;;;;98.07;65.80;;;;;;;17.80;100.00;100178.78;4988918;28;20194;-78
2022/06/05 03:24:08;;;;;;;108.17;71.60;;;;;;;17.87;100.00;100200.34;4988759;28;20296;-77
2022/06/05 03:26:34;;;;;;;103.80;68.43;;;;;;;17.88;100.00;100183.72;4986197;28;20271;-79
2022/06/05 03:28:59;;;;;;;104.37;68.10;;;;;;;17.93;100.00;100158.22;4989426;28;20245;-78
2022/06/05 03:31:26;;;;;;;100.30;67.70;;;;;;;17.92;100.00;100154.72;4985786;28;20567;-77
2022/06/05 03:33:51;;;;;;;97.97;66.73;;;;;;;17.93;100.00;100152.97;4985686;28;20205;-77
2022/06/05 03:36:18;;;;;;;92.63;63.33;;;;;;;17.95;100.00;100135.44;4985506;28;20189;-78
2022/06/05 03:38:43;;;;;;;143.07;86.10;;;;;;;17.96;100.00;100101.31;4987430;28;20192;-78
2022/06/05 03:41:09;;;;;;;145.67;82.50;;;;;;;17.86;100.00;100088.69;4989942;28;20663;-80
2022/06/05 03:43:38;;;;;;;103.97;67.73;;;;;;;17.83;100.00;100105.38;4989723;28;20187;-79
2022/06/05 03:46:06;;;;;;;99.50;63.80;;;;;;;17.90;100.00;100129.53;4995387;28;20332;-80
2022/06/05 03:48:32;;;;;;;99.10;64.97;;;;;;;17.98;100.00;100151.91;4991628;28;20201;-80
2022/06/05 03:50:58;;;;;;;91.83;62.50;;;;;;;18.05;100.00;100151.66;4995626;28;20213;-79
2022/06/05 03:53:23;;;;;;;95.27;60.73;;;;;;;18.06;100.00;100130.63;4995099;28;20704;-79
2022/06/05 03:55:49;;;;;;;107.50;69.80;;;;;;;18.05;100.00;100125.47;4993599;28;20209;-79
2022/06/05 03:58:14;;;;;;;97.63;64.40;;;;;;;17.97;100.00;100107.44;4993889;28;20193;-79
2022/06/05 04:00:41;;;;;;;93.03;61.93;;;;;;;18.00;100.00;100114.31;4991964;28;20609;-79
2022/06/05 04:03:07;;;;;;;91.50;58.80;;;;;;;18.05;100.00;100118.44;4993809;28;20203;-79
2022/06/05 04:05:33;;;;;;;109.70;66.60;;;;;;;18.04;100.00;100116.75;4984541;28;20400;-80
2022/06/05 04:07:58;;;;;;;96.33;61.13;;;;;;;18.01;100.00;100126.50;4986639;28;20911;-78
2022/06/05 04:10:24;;;;;;;86.60;58.37;;;;;;;18.03;100.00;100140.38;4987589;28;20213;-79
2022/06/05 04:12:50;;;;;;;86.40;57.43;;;;;;;18.05;100.00;100151.66;4989325;28;20343;-79
2022/06/05 04:15:16;;;;;;;80.97;56.27;;;;;;;18.03;100.00;100154.31;4988695;28;20640;-78
2022/06/05 04:17:41;;;;;;;88.13;57.87;;;;;;;18.04;100.00;100166.50;4987432;28;20849;-80
2022/06/05 04:20:08;;;;;;;87.07;55.73;;;;;;;18.06;100.00;100174.31;4984341;28;20207;-79
2022/06/05 04:22:35;;;;;;;84.63;56.30;;;;;;;18.08;100.00;100181.16;4986568;28;20189;-79
2022/06/05 04:25:02;;;;;;;91.37;57.83;;;;;;;18.09;100.00;100185.50;4984322;28;20820;-78
2022/06/05 04:27:27;;;;;;;88.30;57.23;;;;;;;18.12;100.00;100185.38;4987246;28;20662;-80
2022/06/05 04:29:53;;;;;;;86.67;55.73;;;;;;;18.17;100.00;100194.78;5018213;28;20217;-79
2022/06/05 04:32:18;;;;;;;85.30;56.47;;;;;;;18.18;100.00;100176.41;4986206;28;20189;-79
2022/06/05 04:34:44;;;;;;;130.90;80.53;;;;;;;18.13;100.00;100149.53;4986434;28;20234;-80
2022/06/05 04:37:10;;;;;;;141.43;83.50;;;;;;;18.05;100.00;100121.06;4986093;28;20175;-79
2022/06/05 04:39:35;;;;;;;135.07;80.37;;;;;;;17.99;100.00;100097.78;4988702;28;20275;-80
2022/06/05 04:42:01;;;;;;;134.33;82.50;;;;;;;17.86;100.00;100080.84;4988789;28;20185;-80
2022/06/05 04:44:26;;;;;;;139.10;80.30;;;;;;;17.78;100.00;100107.34;4987769;28;20610;-81
2022/06/05 04:46:53;;;;;;;128.50;77.67;;;;;;;17.75;100.00;100120.56;4988433;28;20211;-82
2022/06/05 04:49:19;;;;;;;131.77;79.20;;;;;;;17.70;100.00;100125.13;4988765;28;20193;-81
2022/06/05 04:51:44;;;;;;;117.70;72.70;;;;;;;17.70;100.00;100133.00;4989163;28;20213;-82
2022/06/05 04:54:16;;;;;;;106.00;67.87;;;;;;;17.75;100.00;100152.81;4986805;28;20189;-80
2022/06/05 04:56:42;;;;;;;107.97;66.87;;;;;;;17.81;100.00;100152.56;4985505;28;20387;-82
2022/06/05 04:59:09;;;;;;;112.57;67.00;;;;;;;17.88;100.00;100139.22;4980767;28;20309;-81
2022/06/05 05:01:36;;;;;;;120.10;70.20;;;;;;;17.89;100.00;100130.44;4988674;28;20200;-81
2022/06/05 05:04:05;;;;;;;106.03;65.07;;;;;;;17.92;100.00;100146.03;4986696;28;20893;-82
2022/06/05 05:06:32;;;;;;;96.70;61.33;;;;;;;17.95;100.00;100138.06;4981996;28;20199;-83
2022/06/05 05:08:58;;;;;;;98.63;61.73;;;;;;;17.98;100.00;100130.13;4988754;28;20607;-83
2022/06/05 05:11:26;;;;;;;112.67;69.37;;;;;;;17.98;100.00;100120.47;4988889;28;20310;-82
2022/06/05 05:13:53;;;;;;;114.73;70.60;;;;;;;17.95;100.00;100109.25;4991450;28;20214;-82
2022/06/05 05:16:18;;;;;;;127.63;75.70;;;;;;;17.92;100.00;100097.13;4983018;28;20634;-81
2022/06/05 05:18:44;;;;;;;127.37;75.17;;;;;;;17.86;100.00;100071.22;4989282;28;20212;-81
2022/06/05 05:21:21;;;;;;;120.67;73.33;;;;;;;17.83;100.00;100072.22;4989353;28;20401;-82
2022/06/05 05:23:48;;;;;;;113.00;69.13;;;;;;;17.90;100.00;100070.19;4988523;28;20193;-81
2022/06/05 05:26:19;;;;;;;115.13;68.33;;;;;;;17.96;100.00;100062.06;4990801;28;20181;-81
2022/06/05 05:28:45;;;;;;;136.03;79.00;;;;;;;18.00;100.00;100054.94;4985001;28;20248;-82
2022/06/05 05:31:22;;;;;;;142.70;83.83;;;;;;;17.99;100.00;100061.13;4989603;28;20217;-81
2022/06/05 05:33:52;;;;;;;133.50;79.03;;;;;;;18.03;100.00;100073.13;4987527;28;20212;-81
2022/06/05 05:36:19;;;;;;;137.00;82.30;;;;;;;18.16;100.00;100088.31;4985930;28;20280;-80
2022/06/05 05:44:15;;;;;;;101.87;68.17;;;;;;;19.41;100.00;100100.97;4984796;28;20220;-80
2022/06/05 05:46:41;;;;;;;102.93;66.17;;;;;;;19.65;100.00;100088.41;4990755;28;20190;-81
2022/06/05 05:49:08;;;;;;;87.23;59.77;;;;;;;19.60;100.00;100087.78;4996375;28;20191;-80
2022/06/05 05:51:33;;;;;;;82.47;56.70;;;;;;;19.59;100.00;100098.31;4998343;28;20249;-81
2022/06/05 05:53:59;;;;;;;76.83;53.90;;;;;;;19.63;100.00;100097.25;4999191;28;20595;-83
2022/06/05 05:56:24;;;;;;;76.80;53.87;;;;;;;19.62;100.00;100080.69;4991522;28;20220;-82
2022/06/05 05:58:50;;;;;;;85.53;54.57;;;;;;;19.52;100.00;100079.41;4994608;28;20608;-81
2022/06/05 06:01:15;;;;;;;81.30;54.90;;;;;;;19.36;100.00;100068.84;4995314;28;20212;-80
2022/06/05 06:03:41;;;;;;;83.77;53.83;;;;;;;19.22;100.00;100055.56;5004954;28;20273;-80
2022/06/05 06:06:06;;;;;;;79.00;51.63;;;;;;;19.19;100.00;100048.69;4996151;28;20673;-82
2022/06/05 06:08:32;;;;;;;77.50;51.73;;;;;;;19.15;100.00;100037.47;4992272;28;20286;-80
2022/06/05 06:10:57;;;;;;;75.13;50.27;;;;;;;19.01;100.00;100042.53;4998446;28;20215;-82
2022/06/05 06:13:23;;;;;;;89.67;57.03;;;;;;;18.83;100.00;100031.97;4995920;28;20198;-80
2022/06/05 06:15:49;;;;;;;90.67;56.27;;;;;;;18.73;100.00;100023.72;4994186;28;20194;-81
2022/06/05 06:18:15;;;;;;;89.93;57.67;;;;;;;18.61;100.00;100010.34;4999903;28;20198;-81
2022/06/05 06:20:40;;;;;;;91.57;58.33;;;;;;;18.63;100.00;100000.63;4996161;28;20556;-81
2022/06/05 06:23:06;;;;;;;94.77;58.87;;;;;;;18.65;100.00;99969.97;5010898;28;20293;-81
2022/06/05 06:25:31;;;;;;;98.33;59.33;;;;;;;18.63;100.00;99958.69;4993780;28;20215;-82
2022/06/05 06:27:56;;;;;;;89.00;57.53;;;;;;;18.61;100.00;99947.44;4994403;28;20222;-81
2022/06/05 06:30:22;;;;;;;97.57;60.07;;;;;;;18.66;100.00;99953.31;4998277;28;20221;-83
2022/06/05 06:32:47;;;;;;;106.73;64.83;;;;;;;18.60;100.00;99954.47;4993671;28;20620;-82
2022/06/05 06:35:13;;;;;;;105.87;60.07;;;;;;;18.65;100.00;99957.69;4993431;28;20187;-80
2022/06/05 06:37:38;;;;;;;112.70;67.63;;;;;;;18.69;100.00;99954.00;4989870;28;20184;-79
2022/06/05 06:40:04;;;;;;;135.17;80.47;;;;;;;18.72;100.00;99925.03;4990457;28;20203;-80
2022/06/05 06:42:30;;;;;;;135.87;77.17;;;;;;;18.60;100.00;99933.50;4989084;28;21024;-80
2022/06/05 06:44:56;;;;;;;132.33;77.73;;;;;;;18.56;100.00;99918.84;4994582;28;20188;-81
2022/06/05 06:47:22;;;;;;;121.87;74.27;;;;;;;18.54;100.00;99926.75;4996159;28;20213;-81
2022/06/05 06:49:47;;;;;;;108.60;66.83;;;;;;;18.53;100.00;99918.97;4995825;28;20233;-81
2022/06/05 06:52:13;;;;;;;114.20;69.83;;;;;;;18.58;100.00;99917.84;4997016;28;20187;-81
2022/06/05 06:54:39;;;;;;;100.80;63.07;;;;;;;18.64;100.00;99932.41;4998425;28;20185;-81
2022/06/05 06:57:04;;;;;;;97.03;60.43;;;;;;;18.70;100.00;99928.63;4995845;28;20188;-80
2022/06/05 06:59:30;;;;;;;93.10;60.03;;;;;;;18.75;100.00;99924.03;4993737;28;20414;-81
2022/06/05 07:01:55;;;;;;;97.90;59.43;;;;;;;18.77;100.00;99916.06;4994464;28;20200;-80
2022/06/05 07:04:21;;;;;;;86.90;55.73;;;;;;;18.77;100.00;99901.22;4998761;28;20244;-79
2022/06/05 07:06:47;;;;;;;99.37;61.43;;;;;;;18.82;100.00;99903.59;4995963;28;20198;-79
2022/06/05 07:09:14;;;;;;;89.03;59.30;;;;;;;18.88;100.00;99900.69;4992811;28;20187;-79
2022/06/05 07:11:40;;;;;;;104.80;62.70;;;;;;;18.84;100.00;99915.69;4990054;28;20222;-78
2022/06/05 07:14:05;;;;;;;96.20;61.73;;;;;;;18.91;100.00;99918.03;4988643;28;20724;-79
2022/06/05 07:16:31;;;;;;;96.57;60.37;;;;;;;18.95;100.00;99914.38;4992019;28;20279;-80
2022/06/05 07:18:57;;;;;;;82.90;56.33;;;;;;;19.00;100.00;99914.97;4995044;28;20683;-80
2022/06/05 07:21:25;;;;;;;82.10;56.60;;;;;;;19.07;100.00;99907.63;4985174;28;20218;-78
2022/06/05 07:23:50;;;;;;;102.23;61.43;;;;;;;19.13;100.00;99910.81;4989995;28;21119;-79
2022/06/05 07:26:19;;;;;;;96.07;59.70;;;;;;;19.22;100.00;99909.47;4990315;28;20398;-81
2022/06/05 07:28:45;;;;;;;84.93;57.13;;;;;;;19.35;100.00;99893.97;4989891;28;20197;-81
2022/06/05 07:31:13;;;;;;;81.50;54.80;;;;;;;19.40;100.00;99885.84;4992429;28;20216;-80
2022/06/05 07:33:41;;;;;;;78.97;54.17;;;;;;;19.49;100.00;99875.72;4985785;28;20608;-81
2022/06/05 07:36:09;;;;;;;83.13;54.10;;;;;;;19.53;100.00;99889.53;4990290;28;20469;-79
2022/06/05 07:38:35;;;;;;;69.77;49.77;;;;;;;19.63;100.00;99885.50;4992729;28;20709;-79
2022/06/05 07:41:01;;;;;;;70.10;50.90;;;;;;;19.78;100.00;99885.63;4991108;28;20236;-78
2022/06/05 07:43:27;;;;;;;71.53;48.97;;;;;;;19.94;100.00;99868.13;4989911;28;20194;-79
2022/06/05 07:45:52;;;;;;;67.43;47.70;;;;;;;20.06;100.00;99860.50;4989873;28;20192;-79
2022/06/05 07:48:19;;;;;;;68.87;47.90;;;;;;;20.12;100.00;99852.25;4991601;28;20192;-79
2022/06/05 07:56:15;;;;;;;66.10;46.47;;;;;;;20.25;100.00;99866.44;4987124;28;20287;-79
2022/06/05 07:58:42;;;;;;;59.80;44.57;;;;;;;20.37;100.00;99880.63;4986298;28;20272;-79
2022/06/05 08:01:07;;;;;;;59.20;43.20;;;;;;;20.48;100.00;99881.81;4986868;28;20204;-78
2022/06/05 08:03:34;;;;;;;55.07;41.00;;;;;;;20.52;100.00;99880.69;4991452;28;20200;-78
2022/06/05 08:05:59;;;;;;;57.90;41.67;;;;;;;20.49;100.00;99886.16;4985576;28;20819;-79
2022/06/05 08:08:25;;;;;;;52.20;39.80;;;;;;;20.45;100.00;99895.13;4991350;28;20195;-79
2022/06/05 08:10:50;;;;;;;52.93;39.67;;;;;;;20.56;100.00;99904.13;4987503;28;20244;-78
2022/06/05 08:13:16;;;;;;;50.53;38.27;;;;;;;20.77;100.00;99905.63;4988390;28;20193;-78
2022/06/05 08:15:45;;;;;;;49.27;37.67;;;;;;;21.10;100.00;99900.16;4987329;28;20206;-78
2022/06/05 08:18:11;;;;;;;40.50;34.03;;;;;;;21.46;100.00;99904.16;4983349;28;20241;-78
2022/06/05 08:20:37;;;;;;;38.60;31.57;;;;;;;21.90;100.00;99912.09;4984373;28;20209;-78
2022/06/05 08:23:02;;;;;;;35.50;30.80;;;;;;;22.13;100.00;99923.81;4987209;28;20181;-78
2022/06/05 08:25:28;;;;;;;31.30;27.87;;;;;;;22.21;100.00;99931.25;4984652;28;20203;-78
2022/06/05 08:27:53;;;;;;;30.27;27.17;;;;;;;22.29;100.00;99936.84;4982739;28;20293;-78
2022/06/05 08:30:19;;;;;;;28.63;24.73;;;;;;;22.40;100.00;99946.72;4986964;28;20288;-79
2022/06/05 08:32:44;;;;;;;28.13;25.13;;;;;;;22.52;100.00;99960.94;5001929;28;20208;-78
2022/06/05 08:35:10;;;;;;;28.50;24.33;;;;;;;22.52;100.00;99968.84;4985067;28;20204;-79
2022/06/05 08:43:16;;;;;;;25.73;23.13;;;;;;;22.27;100.00;99980.91;4986675;28;20580;-78
2022/06/05 08:45:50;;;;;;;23.80;21.57;;;;;;;22.35;100.00;99988.34;4986810;28;20172;-77
2022/06/05 08:48:51;;;;;;;22.90;20.70;;;;;;;22.43;100.00;99996.66;4983042;28;20466;-79
2022/06/05 08:51:40;;;;;;;24.33;21.97;;;;;;;22.50;100.00;100005.84;4983286;28;20251;-77
2022/06/05 08:54:12;;;;;;;22.97;20.70;;;;;;;22.51;100.00;100007.53;4988832;28;20640;-77
2022/06/05 08:56:46;;;;;;;23.10;21.07;;;;;;;22.52;100.00;100011.88;4988679;28;20264;-78
2022/06/05 08:59:36;;;;;;;23.40;21.30;;;;;;;22.18;100.00;100015.75;5019342;28;20711;-78
2022/06/05 09:02:20;;;;;;;25.33;22.93;;;;;;;21.84;100.00;100007.28;4988085;28;20184;-77
2022/06/05 09:04:51;;;;;;;25.77;23.30;;;;;;;21.82;100.00;100001.25;4984978;28;20672;-78
2022/06/05 09:07:24;;;;;;;26.77;24.27;;;;;;;21.82;100.00;99996.84;4986867;28;20190;-80
2022/06/05 09:10:06;;;;;;;29.13;26.33;;;;;;;21.75;100.00;100004.28;4984511;28;20231;-78
2022/06/05 09:12:34;;;;;;;30.33;27.23;;;;;;;21.69;100.00;99990.63;4985026;28;20275;-78
2022/06/05 09:15:15;;;;;;;33.00;29.73;;;;;;;21.74;100.00;99992.06;4983041;28;20239;-78
2022/06/05 09:17:49;;;;;;;38.70;34.57;;;;;;;21.88;100.00;99998.25;4993022;28;20204;-78
2022/06/05 09:20:17;;;;;;;39.90;35.90;;;;;;;22.35;100.00;99988.34;4984973;28;20330;-78
2022/06/05 09:22:59;;;;;;;33.73;30.53;;;;;;;22.83;100.00;99994.06;4989733;28;20620;-79
2022/06/05 09:25:52;;;;;;;25.67;23.63;;;;;;;23.09;100.00;99995.97;4986039;28;20181;-77
2022/06/05 09:28:30;;;;;;;22.53;20.73;;;;;;;23.03;100.00;99997.22;4991542;28;20224;-78
2022/06/05 09:30:58;;;;;;;21.00;19.40;;;;;;;22.89;100.00;99999.91;4997550;28;20231;-77
2022/06/05 09:33:30;;;;;;;22.13;20.03;;;;;;;22.83;100.00;100002.00;4982542;28;20228;-77
2022/06/05 09:36:04;;;;;;;22.80;20.90;;;;;;;22.82;100.00;100000.28;5019039;28;20204;-78
2022/06/05 09:38:37;;;;;;;22.37;20.57;;;;;;;22.79;100.00;99992.56;4983355;28;20203;-77
2022/06/05 09:41:11;;;;;;;22.13;20.27;;;;;;;22.67;100.00;99990.75;4982144;28;20315;-77
2022/06/05 09:43:43;;;;;;;23.20;21.40;;;;;;;22.62;100.00;99977.00;4994811;28;20195;-78
2022/06/05 09:46:46;;;;;;;24.33;22.33;;;;;;;22.61;100.00;99975.34;4984097;28;20552;-78
2022/06/05 09:49:30;;;;;;;25.07;22.97;;;;;;;22.89;100.00;99971.72;4981624;28;20195;-77
2022/06/05 09:51:57;;;;;;;27.47;25.00;;;;;;;23.55;100.00;99979.69;4984212;28;20216;-78
2022/06/05 09:54:29;;;;;;;26.53;24.43;;;;;;;24.02;100.00;99973.88;4988961;28;20220;-78
2022/06/05 10:00:14;;;;;;;24.83;22.87;;;;;;;23.82;100.00;99985.81;4977540;28;20269;-78
2022/06/05 10:02:42;;;;;;;24.43;22.33;;;;;;;23.64;100.00;99983.50;4982790;28;20205;-77
2022/06/05 10:05:28;;;;;;;25.73;23.53;;;;;;;23.72;100.00;99973.22;4984076;28;20267;-78
2022/06/05 10:08:20;;;;;;;27.03;24.90;;;;;;;24.16;100.00;99972.88;4984301;28;20575;-78
2022/06/05 10:10:48;;;;;;;26.37;24.13;;;;;;;24.53;100.00;99974.69;4981434;28;20231;-78
2022/06/05 10:13:22;;;;;;;24.90;23.10;;;;;;;24.86;100.00;99981.13;4982214;28;20196;-78
2022/06/05 10:16:12;;;;;;;24.23;22.33;;;;;;;25.33;100.00;99973.25;4994134;28;20285;-78
2022/06/05 10:18:47;;;;;;;21.03;19.53;;;;;;;25.71;100.00;99974.78;4982917;28;20200;-78
2022/06/05 10:21:20;;;;;;;18.03;16.83;;;;;;;25.82;100.00;99953.56;4983066;28;20622;-77
2022/06/05 10:24:07;;;;;;;18.57;17.17;;;;;;;25.68;100.00;99961.75;4979526;28;20573;-77
2022/06/05 10:26:39;;;;;;;17.97;16.77;;;;;;;25.52;100.00;99960.28;4982328;28;20185;-77
2022/06/05 10:29:25;;;;;;;18.03;16.73;;;;;;;25.51;100.00;99949.81;4982891;28;20246;-78
2022/06/05 10:32:10;;;;;;;16.70;15.60;;;;;;;25.62;100.00;99964.91;4984578;28;20304;-77
2022/06/05 10:34:42;;;;;;;16.83;15.63;;;;;;;25.69;100.00;99959.00;4985279;28;20204;-75
2022/06/05 10:37:38;;;;;;;16.70;15.40;;;;;;;25.84;100.00;99954.28;4985212;28;20724;-75
2022/06/05 10:40:17;;;;;;;17.20;15.90;;;;;;;25.98;100.00;99952.34;4977900;28;20684;-76
2022/06/05 10:42:58;;;;;;;15.10;14.10;;;;;;;26.14;100.00;99957.31;4986422;28;20235;-76
2022/06/05 10:45:50;;;;;;;14.67;13.77;;;;;;;26.28;100.00;99953.53;4991176;28;20204;-77
2022/06/05 10:48:38;;;;;;;14.77;13.77;;;;;;;26.38;100.00;99945.69;4989368;28;20732;-77
2022/06/05 10:51:16;;;;;;;13.57;12.67;;;;;;;26.57;100.00;99953.84;4988779;28;20220;-77
2022/06/05 10:54:07;;;;;;;12.60;11.70;;;;;;;26.88;100.00;99950.50;4987529;28;20212;-77
2022/06/05 10:56:36;;;;;;;11.30;10.60;;;;;;;27.41;100.00;99954.91;4983950;28;20186;-77
2022/06/05 10:59:14;;;;;;;10.57;9.87;;;;;;;27.79;100.00;99948.13;4981279;28;20189;-78
2022/06/05 11:02:02;;;;;;;11.50;10.70;;;;;;;27.95;100.00;99939.63;4982759;28;20294;-77
2022/06/05 11:04:49;;;;;;;9.57;8.87;;;;;;;28.04;100.00;99945.97;4992060;28;20208;-78
2022/06/05 11:07:36;;;;;;;10.03;9.33;;;;;;;28.14;100.00;99936.22;4987245;28;20192;-77
2022/06/05 11:10:04;;;;;;;9.03;8.43;;;;;;;28.28;100.00;99940.31;4983179;28;20212;-77
2022/06/05 11:15:52;;;;;;;8.90;8.20;;;;;;;28.19;100.00;99937.63;4990625;28;20224;-78
2022/06/05 11:18:35;;;;;;;9.37;8.67;;;;;;;28.28;100.00;99928.84;4982388;28;20713;-77
2022/06/05 11:21:02;;;;;;;8.60;8.07;;;;;;;28.43;100.00;99923.94;4996236;28;20731;-77
2022/06/05 11:23:37;;;;;;;7.60;7.10;;;;;;;28.73;100.00;99928.34;4996540;28;20193;-77
2022/06/05 11:26:24;;;;;;;8.93;8.23;;;;;;;28.83;100.00;99911.50;4979160;28;20197;-77
2022/06/05 11:28:52;;;;;;;8.10;7.40;;;;;;;28.69;100.00;99918.06;4981625;28;20196;-77
2022/06/05 11:31:30;;;;;;;7.40;6.80;;;;;;;28.50;100.00;99926.91;4984418;28;20288;-77
2022/06/05 11:34:16;;;;;;;8.17;7.37;;;;;;;28.37;100.00;99921.81;4986278;28;20192;-77
2022/06/05 11:37:17;;;;;;;7.60;7.03;;;;;;;28.47;100.00;99924.50;4984286;28;20196;-77
2022/06/05 11:40:05;;;;;;;6.90;6.30;;;;;;;28.64;100.00;99923.81;4988430;28;20631;-77
2022/06/05 11:42:46;;;;;;;6.73;6.30;;;;;;;28.73;100.00;99916.84;4984984;28;20637;-76
2022/06/05 11:45:30;;;;;;;7.20;6.57;;;;;;;28.74;100.00;99918.53;4987425;28;20316;-77
2022/06/05 11:48:19;;;;;;;6.50;6.03;;;;;;;28.59;100.00;99932.22;4986952;28;20185;-78
2022/06/05 11:51:02;;;;;;;4.17;3.77;;;;;;;28.04;100.00;99935.31;4986562;28;20221;-76
2022/06/05 11:53:51;;;;;;;2.77;2.57;;;;;;;27.38;100.00;99945.38;4984618;28;20265;-77